sensor_id;sensor_type;location;lat;lon;timestamp;temperature;humidity
10964;DHT22;5534;48.784;9.190;2023-06-14T00:00:52;20.40;73.60
10964;DHT22;5534;48.784;9.190;2023-06-14T00:03:18;20.40;73.20
10964;DHT22;5534;48.784;9.190;2023-06-14T00:05:48;20.50;73.70
10964;DHT22;5534;48.784;9.190;2023-06-14T00:08:14;20.50;73.40
10964;DHT22;5534;48.784;9.190;2023-06-14T00:10:40;20.70;73.70
10964;DHT22;5534;48.784;9.190;2023-06-14T00:13:09;20.60;73.30
10964;DHT22;5534;48.784;9.190;2023-06-14T00:15:35;20.60;73.20
10964;DHT22;5534;48.784;9.190;2023-06-14T00:18:01;20.70;72.90
10964;DHT22;5534;48.784;9.190;2023-06-14T00:20:28;20.70;73.10
10964;DHT22;5534;48.784;9.190;2023-06-14T00:22:57;20.60;72.60
10964;DHT22;5534;48.784;9.190;2023-06-14T00:25:23;20.60;72.80
10964;DHT22;5534;48.784;9.190;2023-06-14T00:27:53;20.50;73.20
10964;DHT22;5534;48.784;9.190;2023-06-14T00:30:19;20.50;73.80
10964;DHT22;5534;48.784;9.190;2023-06-14T00:32:46;20.50;75.00
10964;DHT22;5534;48.784;9.190;2023-06-14T00:35:12;20.50;74.80
10964;DHT22;5534;48.784;9.190;2023-06-14T00:37:38;20.40;74.70
10964;DHT22;5534;48.784;9.190;2023-06-14T00:40:05;20.10;76.10
10964;DHT22;5534;48.784;9.190;2023-06-14T00:42:32;20.20;76.20
10964;DHT22;5534;48.784;9.190;2023-06-14T00:44:59;20.00;77.00
10964;DHT22;5534;48.784;9.190;2023-06-14T00:47:24;20.10;77.20
10964;DHT22;5534;48.784;9.190;2023-06-14T00:49:51;20.10;77.40
10964;DHT22;5534;48.784;9.190;2023-06-14T00:52:18;20.10;77.20
10964;DHT22;5534;48.784;9.190;2023-06-14T00:54:43;20.10;77.30
10964;DHT22;5534;48.784;9.190;2023-06-14T00:57:10;20.10;76.90
10964;DHT22;5534;48.784;9.190;2023-06-14T00:59:44;19.90;77.60
10964;DHT22;5534;48.784;9.190;2023-06-14T01:02:11;20.00;77.30
10964;DHT22;5534;48.784;9.190;2023-06-14T01:04:39;20.00;77.10
10964;DHT22;5534;48.784;9.190;2023-06-14T01:13:13;19.80;76.80
10964;DHT22;5534;48.784;9.190;2023-06-14T01:15:43;19.70;78.00
10964;DHT22;5534;48.784;9.190;2023-06-14T01:18:09;19.80;78.10
10964;DHT22;5534;48.784;9.190;2023-06-14T01:20:43;19.60;78.00
10964;DHT22;5534;48.784;9.190;2023-06-14T01:23:11;19.60;78.70
10964;DHT22;5534;48.784;9.190;2023-06-14T01:25:40;19.70;78.90
10964;DHT22;5534;48.784;9.190;2023-06-14T01:28:10;19.80;79.00
10964;DHT22;5534;48.784;9.190;2023-06-14T01:30:39;19.90;79.30
10964;DHT22;5534;48.784;9.190;2023-06-14T01:33:14;19.80;79.40
10964;DHT22;5534;48.784;9.190;2023-06-14T01:35:46;19.60;79.80
10964;DHT22;5534;48.784;9.190;2023-06-14T01:38:13;19.40;81.00
10964;DHT22;5534;48.784;9.190;2023-06-14T01:40:40;19.20;82.50
10964;DHT22;5534;48.784;9.190;2023-06-14T01:43:06;19.30;81.60
10964;DHT22;5534;48.784;9.190;2023-06-14T01:45:33;19.50;81.50
10964;DHT22;5534;48.784;9.190;2023-06-14T01:48:00;19.50;81.90
10964;DHT22;5534;48.784;9.190;2023-06-14T01:50:30;19.50;82.00
10964;DHT22;5534;48.784;9.190;2023-06-14T01:52:57;19.50;81.80
10964;DHT22;5534;48.784;9.190;2023-06-14T01:55:23;19.40;82.20
10964;DHT22;5534;48.784;9.190;2023-06-14T01:57:51;18.80;83.40
10964;DHT22;5534;48.784;9.190;2023-06-14T02:00:17;18.90;85.10
10964;DHT22;5534;48.784;9.190;2023-06-14T02:02:44;18.80;84.90
10964;DHT22;5534;48.784;9.190;2023-06-14T02:05:10;19.00;84.90
10964;DHT22;5534;48.784;9.190;2023-06-14T02:07:36;19.10;84.20
10964;DHT22;5534;48.784;9.190;2023-06-14T02:10:02;19.20;83.70
10964;DHT22;5534;48.784;9.190;2023-06-14T02:12:28;19.30;83.70
10964;DHT22;5534;48.784;9.190;2023-06-14T02:14:54;19.30;83.10
10964;DHT22;5534;48.784;9.190;2023-06-14T02:17:22;19.30;83.10
10964;DHT22;5534;48.784;9.190;2023-06-14T02:19:47;19.20;83.40
10964;DHT22;5534;48.784;9.190;2023-06-14T02:22:14;19.00;85.10
10964;DHT22;5534;48.784;9.190;2023-06-14T02:24:43;18.90;85.60
10964;DHT22;5534;48.784;9.190;2023-06-14T02:27:09;18.60;85.50
10964;DHT22;5534;48.784;9.190;2023-06-14T02:29:36;18.00;88.00
10964;DHT22;5534;48.784;9.190;2023-06-14T02:32:02;18.30;88.50
10964;DHT22;5534;48.784;9.190;2023-06-14T02:34:28;18.70;87.30
10964;DHT22;5534;48.784;9.190;2023-06-14T02:36:54;18.80;86.50
10964;DHT22;5534;48.784;9.190;2023-06-14T02:39:21;18.90;86.30
10964;DHT22;5534;48.784;9.190;2023-06-14T02:41:49;18.90;85.90
10964;DHT22;5534;48.784;9.190;2023-06-14T02:44:17;18.90;85.30
10964;DHT22;5534;48.784;9.190;2023-06-14T02:46:43;19.00;85.50
10964;DHT22;5534;48.784;9.190;2023-06-14T02:49:10;19.00;85.60
10964;DHT22;5534;48.784;9.190;2023-06-14T02:51:36;19.10;85.60
10964;DHT22;5534;48.784;9.190;2023-06-14T02:54:02;19.00;85.40
10964;DHT22;5534;48.784;9.190;2023-06-14T02:56:29;19.00;84.90
10964;DHT22;5534;48.784;9.190;2023-06-14T02:58:55;19.00;85.10
10964;DHT22;5534;48.784;9.190;2023-06-14T03:01:20;18.90;84.90
10964;DHT22;5534;48.784;9.190;2023-06-14T03:03:47;18.90;84.90
10964;DHT22;5534;48.784;9.190;2023-06-14T03:06:13;18.90;85.50
10964;DHT22;5534;48.784;9.190;2023-06-14T03:08:40;18.60;85.80
10964;DHT22;5534;48.784;9.190;2023-06-14T03:11:07;18.60;86.80
10964;DHT22;5534;48.784;9.190;2023-06-14T03:13:34;18.60;87.30
10964;DHT22;5534;48.784;9.190;2023-06-14T03:16:00;18.70;87.50
10964;DHT22;5534;48.784;9.190;2023-06-14T03:18:29;18.70;87.70
10964;DHT22;5534;48.784;9.190;2023-06-14T03:20:56;18.50;87.50
10964;DHT22;5534;48.784;9.190;2023-06-14T03:23:26;18.50;87.50
10964;DHT22;5534;48.784;9.190;2023-06-14T03:25:52;18.60;87.40
10964;DHT22;5534;48.784;9.190;2023-06-14T03:28:18;18.70;87.90
10964;DHT22;5534;48.784;9.190;2023-06-14T03:30:44;18.60;88.30
10964;DHT22;5534;48.784;9.190;2023-06-14T03:33:09;18.70;88.50
10964;DHT22;5534;48.784;9.190;2023-06-14T03:35:36;18.70;88.60
10964;DHT22;5534;48.784;9.190;2023-06-14T03:38:02;18.60;88.60
10964;DHT22;5534;48.784;9.190;2023-06-14T03:40:29;18.60;89.50
10964;DHT22;5534;48.784;9.190;2023-06-14T03:42:55;18.50;90.10
10964;DHT22;5534;48.784;9.190;2023-06-14T03:45:21;18.40;90.30
10964;DHT22;5534;48.784;9.190;2023-06-14T03:47:47;18.50;90.50
10964;DHT22;5534;48.784;9.190;2023-06-14T03:50:13;18.50;90.70
10964;DHT22;5534;48.784;9.190;2023-06-14T03:52:39;18.50;90.60
10964;DHT22;5534;48.784;9.190;2023-06-14T03:55:08;18.30;91.10
10964;DHT22;5534;48.784;9.190;2023-06-14T03:57:34;18.30;91.40
10964;DHT22;5534;48.784;9.190;2023-06-14T03:59:59;18.40;91.70
10964;DHT22;5534;48.784;9.190;2023-06-14T04:02:25;18.50;91.80
10964;DHT22;5534;48.784;9.190;2023-06-14T04:04:54;18.50;91.60
10964;DHT22;5534;48.784;9.190;2023-06-14T04:07:20;18.50;91.90
10964;DHT22;5534;48.784;9.190;2023-06-14T04:09:46;18.60;91.80
10964;DHT22;5534;48.784;9.190;2023-06-14T04:12:12;18.60;91.80
10964;DHT22;5534;48.784;9.190;2023-06-14T04:14:41;18.60;91.60
10964;DHT22;5534;48.784;9.190;2023-06-14T04:17:07;18.60;91.00
10964;DHT22;5534;48.784;9.190;2023-06-14T04:19:33;18.60;91.00
10964;DHT22;5534;48.784;9.190;2023-06-14T04:21:59;18.60;90.80
10964;DHT22;5534;48.784;9.190;2023-06-14T04:24:28;18.60;90.70
10964;DHT22;5534;48.784;9.190;2023-06-14T04:27:00;18.60;91.10
10964;DHT22;5534;48.784;9.190;2023-06-14T04:29:29;18.50;90.90
10964;DHT22;5534;48.784;9.190;2023-06-14T04:31:55;18.60;90.90
10964;DHT22;5534;48.784;9.190;2023-06-14T04:34:27;18.50;91.10
10964;DHT22;5534;48.784;9.190;2023-06-14T04:36:58;18.60;91.10
10964;DHT22;5534;48.784;9.190;2023-06-14T04:39:25;18.60;91.00
10964;DHT22;5534;48.784;9.190;2023-06-14T04:41:51;18.70;90.90
10964;DHT22;5534;48.784;9.190;2023-06-14T04:44:18;18.60;91.20
10964;DHT22;5534;48.784;9.190;2023-06-14T04:46:45;18.60;91.30
10964;DHT22;5534;48.784;9.190;2023-06-14T04:49:15;18.60;91.60
10964;DHT22;5534;48.784;9.190;2023-06-14T04:51:45;18.60;91.60
10964;DHT22;5534;48.784;9.190;2023-06-14T04:54:11;18.70;91.40
10964;DHT22;5534;48.784;9.190;2023-06-14T04:56:41;18.40;91.70
10964;DHT22;5534;48.784;9.190;2023-06-14T04:59:12;18.40;91.90
10964;DHT22;5534;48.784;9.190;2023-06-14T05:01:38;18.50;91.60
10964;DHT22;5534;48.784;9.190;2023-06-14T05:04:04;18.40;91.70
10964;DHT22;5534;48.784;9.190;2023-06-14T05:06:30;18.60;91.40
10964;DHT22;5534;48.784;9.190;2023-06-14T05:08:56;18.70;91.10
10964;DHT22;5534;48.784;9.190;2023-06-14T05:11:25;18.80;90.70
10964;DHT22;5534;48.784;9.190;2023-06-14T05:13:54;18.80;90.80
10964;DHT22;5534;48.784;9.190;2023-06-14T05:16:20;18.70;90.80
10964;DHT22;5534;48.784;9.190;2023-06-14T05:18:48;18.80;90.50
10964;DHT22;5534;48.784;9.190;2023-06-14T05:21:14;18.70;90.20
10964;DHT22;5534;48.784;9.190;2023-06-14T05:23:43;18.60;90.30
10964;DHT22;5534;48.784;9.190;2023-06-14T05:26:10;18.60;90.00
10964;DHT22;5534;48.784;9.190;2023-06-14T05:28:36;18.60;90.10
10964;DHT22;5534;48.784;9.190;2023-06-14T05:31:02;18.60;89.90
10964;DHT22;5534;48.784;9.190;2023-06-14T05:33:28;18.70;90.00
10964;DHT22;5534;48.784;9.190;2023-06-14T05:35:54;18.80;90.50
10964;DHT22;5534;48.784;9.190;2023-06-14T05:38:20;18.90;90.60
10964;DHT22;5534;48.784;9.190;2023-06-14T05:40:46;19.00;90.90
10964;DHT22;5534;48.784;9.190;2023-06-14T05:43:12;18.90;90.30
10964;DHT22;5534;48.784;9.190;2023-06-14T05:45:38;19.00;90.60
10964;DHT22;5534;48.784;9.190;2023-06-14T05:48:04;19.00;90.40
10964;DHT22;5534;48.784;9.190;2023-06-14T05:50:30;19.10;90.50
10964;DHT22;5534;48.784;9.190;2023-06-14T05:52:56;19.10;90.70
10964;DHT22;5534;48.784;9.190;2023-06-14T05:55:21;19.30;90.30
10964;DHT22;5534;48.784;9.190;2023-06-14T05:57:48;19.30;90.50
10964;DHT22;5534;48.784;9.190;2023-06-14T06:00:14;19.40;89.80
10964;DHT22;5534;48.784;9.190;2023-06-14T06:02:42;19.40;90.10
10964;DHT22;5534;48.784;9.190;2023-06-14T06:05:11;19.20;90.30
10964;DHT22;5534;48.784;9.190;2023-06-14T06:07:38;19.40;90.00
10964;DHT22;5534;48.784;9.190;2023-06-14T06:10:08;19.50;89.40
10964;DHT22;5534;48.784;9.190;2023-06-14T06:12:34;20.20;88.50
10964;DHT22;5534;48.784;9.190;2023-06-14T06:14:59;22.00;84.00
10964;DHT22;5534;48.784;9.190;2023-06-14T06:17:26;23.70;78.20
10964;DHT22;5534;48.784;9.190;2023-06-14T06:19:52;24.50;75.00
10964;DHT22;5534;48.784;9.190;2023-06-14T06:22:18;24.80;74.00
10964;DHT22;5534;48.784;9.190;2023-06-14T06:24:43;25.40;72.80
10964;DHT22;5534;48.784;9.190;2023-06-14T06:27:09;26.10;70.60
10964;DHT22;5534;48.784;9.190;2023-06-14T06:29:36;27.20;68.30
10964;DHT22;5534;48.784;9.190;2023-06-14T06:32:02;27.50;65.90
10964;DHT22;5534;48.784;9.190;2023-06-14T06:34:28;27.60;65.90
10964;DHT22;5534;48.784;9.190;2023-06-14T06:36:54;28.00;65.40
10964;DHT22;5534;48.784;9.190;2023-06-14T06:39:20;28.30;65.00
10964;DHT22;5534;48.784;9.190;2023-06-14T06:41:46;28.80;63.50
10964;DHT22;5534;48.784;9.190;2023-06-14T06:44:12;28.80;62.90
10964;DHT22;5534;48.784;9.190;2023-06-14T06:46:38;29.00;62.70
10964;DHT22;5534;48.784;9.190;2023-06-14T06:49:09;29.30;61.50
10964;DHT22;5534;48.784;9.190;2023-06-14T06:51:36;29.30;60.60
10964;DHT22;5534;48.784;9.190;2023-06-14T06:54:10;29.60;59.70
10964;DHT22;5534;48.784;9.190;2023-06-14T06:56:36;29.90;59.10
10964;DHT22;5534;48.784;9.190;2023-06-14T06:59:02;29.10;60.20
10964;DHT22;5534;48.784;9.190;2023-06-14T07:01:28;29.40;59.80
10964;DHT22;5534;48.784;9.190;2023-06-14T07:03:55;29.30;59.30
10964;DHT22;5534;48.784;9.190;2023-06-14T07:06:21;29.40;59.40
10964;DHT22;5534;48.784;9.190;2023-06-14T07:08:47;28.80;59.60
10964;DHT22;5534;48.784;9.190;2023-06-14T07:11:16;28.60;60.00
10964;DHT22;5534;48.784;9.190;2023-06-14T07:13:41;28.20;60.10
10964;DHT22;5534;48.784;9.190;2023-06-14T07:16:07;27.80;60.90
10964;DHT22;5534;48.784;9.190;2023-06-14T07:18:33;27.70;61.30
10964;DHT22;5534;48.784;9.190;2023-06-14T07:21:04;27.50;61.10
10964;DHT22;5534;48.784;9.190;2023-06-14T07:23:31;27.10;61.30
10964;DHT22;5534;48.784;9.190;2023-06-14T07:25:56;27.00;62.20
10964;DHT22;5534;48.784;9.190;2023-06-14T07:28:22;26.80;62.60
10964;DHT22;5534;48.784;9.190;2023-06-14T07:30:48;26.50;63.00
10964;DHT22;5534;48.784;9.190;2023-06-14T07:33:14;26.40;63.20
10964;DHT22;5534;48.784;9.190;2023-06-14T07:35:40;26.50;63.00
10964;DHT22;5534;48.784;9.190;2023-06-14T07:38:09;26.20;63.30
10964;DHT22;5534;48.784;9.190;2023-06-14T07:40:34;26.20;64.10
10964;DHT22;5534;48.784;9.190;2023-06-14T07:43:00;26.40;62.70
10964;DHT22;5534;48.784;9.190;2023-06-14T07:45:30;26.50;63.70
10964;DHT22;5534;48.784;9.190;2023-06-14T07:47:56;26.80;62.50
10964;DHT22;5534;48.784;9.190;2023-06-14T07:50:22;27.00;62.20
10964;DHT22;5534;48.784;9.190;2023-06-14T07:52:48;27.00;61.80
10964;DHT22;5534;48.784;9.190;2023-06-14T07:55:14;26.80;62.00
10964;DHT22;5534;48.784;9.190;2023-06-14T07:57:43;26.70;62.40
10964;DHT22;5534;48.784;9.190;2023-06-14T08:00:10;26.20;63.30
10964;DHT22;5534;48.784;9.190;2023-06-14T08:02:41;26.20;63.90
10964;DHT22;5534;48.784;9.190;2023-06-14T08:05:10;26.10;64.10
10964;DHT22;5534;48.784;9.190;2023-06-14T08:07:37;26.20;64.10
10964;DHT22;5534;48.784;9.190;2023-06-14T08:10:04;25.70;65.70
10964;DHT22;5534;48.784;9.190;2023-06-14T08:12:29;25.60;66.30
10964;DHT22;5534;48.784;9.190;2023-06-14T08:14:55;25.90;66.20
10964;DHT22;5534;48.784;9.190;2023-06-14T08:17:21;26.30;65.90
10964;DHT22;5534;48.784;9.190;2023-06-14T08:19:47;26.80;65.60
10964;DHT22;5534;48.784;9.190;2023-06-14T08:22:12;27.10;64.70
10964;DHT22;5534;48.784;9.190;2023-06-14T08:24:38;27.30;64.80
10964;DHT22;5534;48.784;9.190;2023-06-14T08:27:05;27.20;64.80
10964;DHT22;5534;48.784;9.190;2023-06-14T08:29:31;27.10;64.40
10964;DHT22;5534;48.784;9.190;2023-06-14T08:31:57;26.80;65.60
10964;DHT22;5534;48.784;9.190;2023-06-14T08:34:23;26.90;66.40
10964;DHT22;5534;48.784;9.190;2023-06-14T08:36:52;27.10;65.80
10964;DHT22;5534;48.784;9.190;2023-06-14T08:39:17;26.80;65.80
10964;DHT22;5534;48.784;9.190;2023-06-14T08:41:46;26.70;66.00
10964;DHT22;5534;48.784;9.190;2023-06-14T08:44:12;26.70;66.50
10964;DHT22;5534;48.784;9.190;2023-06-14T08:46:39;26.60;66.90
10964;DHT22;5534;48.784;9.190;2023-06-14T08:49:12;26.30;67.40
10964;DHT22;5534;48.784;9.190;2023-06-14T08:51:41;26.10;67.80
10964;DHT22;5534;48.784;9.190;2023-06-14T08:54:10;26.20;67.50
10964;DHT22;5534;48.784;9.190;2023-06-14T08:56:38;26.30;67.20
10964;DHT22;5534;48.784;9.190;2023-06-14T08:59:04;26.20;66.60
10964;DHT22;5534;48.784;9.190;2023-06-14T09:01:37;25.90;66.90
10964;DHT22;5534;48.784;9.190;2023-06-14T09:04:03;26.10;66.40
10964;DHT22;5534;48.784;9.190;2023-06-14T09:06:31;26.10;67.20
10964;DHT22;5534;48.784;9.190;2023-06-14T09:08:57;26.30;65.90
10964;DHT22;5534;48.784;9.190;2023-06-14T09:11:24;26.10;66.50
10964;DHT22;5534;48.784;9.190;2023-06-14T09:13:51;25.90;67.80
10964;DHT22;5534;48.784;9.190;2023-06-14T09:16:17;25.80;68.50
10964;DHT22;5534;48.784;9.190;2023-06-14T09:18:44;25.50;69.10
10964;DHT22;5534;48.784;9.190;2023-06-14T09:21:13;25.50;68.30
10964;DHT22;5534;48.784;9.190;2023-06-14T09:23:40;25.50;67.90
10964;DHT22;5534;48.784;9.190;2023-06-14T09:26:15;25.50;67.00
10964;DHT22;5534;48.784;9.190;2023-06-14T09:28:45;25.50;67.20
10964;DHT22;5534;48.784;9.190;2023-06-14T09:31:14;25.50;66.70
10964;DHT22;5534;48.784;9.190;2023-06-14T09:33:45;25.40;66.80
10964;DHT22;5534;48.784;9.190;2023-06-14T09:36:18;25.00;69.00
10964;DHT22;5534;48.784;9.190;2023-06-14T09:39:01;24.90;70.30
10964;DHT22;5534;48.784;9.190;2023-06-14T09:41:37;24.80;69.90
10964;DHT22;5534;48.784;9.190;2023-06-14T09:44:08;24.80;70.60
10964;DHT22;5534;48.784;9.190;2023-06-14T09:46:35;25.00;71.00
10964;DHT22;5534;48.784;9.190;2023-06-14T09:49:03;25.20;70.00
10964;DHT22;5534;48.784;9.190;2023-06-14T09:51:32;25.00;70.10
10964;DHT22;5534;48.784;9.190;2023-06-14T09:54:02;25.00;70.50
10964;DHT22;5534;48.784;9.190;2023-06-14T09:56:42;25.10;70.00
10964;DHT22;5534;48.784;9.190;2023-06-14T09:59:12;25.10;69.30
10964;DHT22;5534;48.784;9.190;2023-06-14T10:01:42;24.90;69.50
10964;DHT22;5534;48.784;9.190;2023-06-14T10:04:09;24.70;70.60
10964;DHT22;5534;48.784;9.190;2023-06-14T10:06:43;24.70;70.90
10964;DHT22;5534;48.784;9.190;2023-06-14T10:09:12;24.70;69.60
10964;DHT22;5534;48.784;9.190;2023-06-14T10:11:38;24.60;64.80
10964;DHT22;5534;48.784;9.190;2023-06-14T10:14:11;24.60;64.60
10964;DHT22;5534;48.784;9.190;2023-06-14T10:19:28;24.80;61.70
10964;DHT22;5534;48.784;9.190;2023-06-14T10:24:48;24.80;63.80
10964;DHT22;5534;48.784;9.190;2023-06-14T10:27:15;24.80;64.30
10964;DHT22;5534;48.784;9.190;2023-06-14T10:32:26;25.10;63.50
10964;DHT22;5534;48.784;9.190;2023-06-14T10:34:56;25.00;66.60
10964;DHT22;5534;48.784;9.190;2023-06-14T10:37:22;25.00;67.60
10964;DHT22;5534;48.784;9.190;2023-06-14T10:39:51;25.00;67.50
10964;DHT22;5534;48.784;9.190;2023-06-14T10:42:17;25.00;67.30
10964;DHT22;5534;48.784;9.190;2023-06-14T10:44:49;25.00;66.40
10964;DHT22;5534;48.784;9.190;2023-06-14T10:47:33;25.00;66.40
10964;DHT22;5534;48.784;9.190;2023-06-14T10:50:04;24.80;67.10
10964;DHT22;5534;48.784;9.190;2023-06-14T10:52:35;24.90;67.00
10964;DHT22;5534;48.784;9.190;2023-06-14T10:55:22;24.90;67.70
10964;DHT22;5534;48.784;9.190;2023-06-14T10:57:54;25.00;65.90
10964;DHT22;5534;48.784;9.190;2023-06-14T11:00:28;25.10;67.20
10964;DHT22;5534;48.784;9.190;2023-06-14T11:05:49;25.30;64.80
10964;DHT22;5534;48.784;9.190;2023-06-14T11:10:44;25.10;64.90
10964;DHT22;5534;48.784;9.190;2023-06-14T11:13:16;25.20;64.30
10964;DHT22;5534;48.784;9.190;2023-06-14T11:15:47;25.20;64.50
10964;DHT22;5534;48.784;9.190;2023-06-14T11:18:14;25.30;63.80
10964;DHT22;5534;48.784;9.190;2023-06-14T11:20:42;25.30;62.80
10964;DHT22;5534;48.784;9.190;2023-06-14T11:23:08;25.30;62.30
10964;DHT22;5534;48.784;9.190;2023-06-14T11:25:34;25.40;62.80
10964;DHT22;5534;48.784;9.190;2023-06-14T11:27:59;25.50;61.80
10964;DHT22;5534;48.784;9.190;2023-06-14T11:30:26;25.60;61.90
10964;DHT22;5534;48.784;9.190;2023-06-14T11:32:54;25.40;62.80
10964;DHT22;5534;48.784;9.190;2023-06-14T11:35:24;25.50;62.30
10964;DHT22;5534;48.784;9.190;2023-06-14T11:37:54;25.70;61.30
10964;DHT22;5534;48.784;9.190;2023-06-14T11:40:27;25.70;59.90
10964;DHT22;5534;48.784;9.190;2023-06-14T11:43:00;25.70;59.60
10964;DHT22;5534;48.784;9.190;2023-06-14T11:45:27;25.60;59.40
10964;DHT22;5534;48.784;9.190;2023-06-14T11:47:55;25.60;60.50
10964;DHT22;5534;48.784;9.190;2023-06-14T11:50:22;25.70;60.70
10964;DHT22;5534;48.784;9.190;2023-06-14T11:52:57;25.90;60.30
10964;DHT22;5534;48.784;9.190;2023-06-14T11:55:25;26.10;59.20
10964;DHT22;5534;48.784;9.190;2023-06-14T11:57:53;26.20;59.20
10964;DHT22;5534;48.784;9.190;2023-06-14T12:00:25;26.20;58.40
10964;DHT22;5534;48.784;9.190;2023-06-14T12:02:54;26.00;58.90
10964;DHT22;5534;48.784;9.190;2023-06-14T12:05:29;25.90;59.00
10964;DHT22;5534;48.784;9.190;2023-06-14T12:08:03;26.10;59.80
10964;DHT22;5534;48.784;9.190;2023-06-14T12:10:39;26.10;60.20
10964;DHT22;5534;48.784;9.190;2023-06-14T12:13:11;26.20;60.00
10964;DHT22;5534;48.784;9.190;2023-06-14T12:15:37;26.10;60.30
10964;DHT22;5534;48.784;9.190;2023-06-14T12:18:07;26.00;59.70
10964;DHT22;5534;48.784;9.190;2023-06-14T12:20:36;25.90;59.40
10964;DHT22;5534;48.784;9.190;2023-06-14T12:23:04;25.80;59.30
10964;DHT22;5534;48.784;9.190;2023-06-14T12:25:34;25.70;60.00
10964;DHT22;5534;48.784;9.190;2023-06-14T12:28:11;25.60;60.60
10964;DHT22;5534;48.784;9.190;2023-06-14T12:30:37;25.60;59.90
10964;DHT22;5534;48.784;9.190;2023-06-14T12:33:04;25.60;60.40
10964;DHT22;5534;48.784;9.190;2023-06-14T12:35:30;25.70;60.30
10964;DHT22;5534;48.784;9.190;2023-06-14T12:37:55;25.80;60.00
10964;DHT22;5534;48.784;9.190;2023-06-14T12:40:22;25.90;58.90
10964;DHT22;5534;48.784;9.190;2023-06-14T12:42:47;25.90;59.90
10964;DHT22;5534;48.784;9.190;2023-06-14T12:45:15;26.10;60.50
10964;DHT22;5534;48.784;9.190;2023-06-14T12:47:41;26.00;60.20
10964;DHT22;5534;48.784;9.190;2023-06-14T12:50:10;25.60;61.20
10964;DHT22;5534;48.784;9.190;2023-06-14T12:52:38;25.80;61.40
10964;DHT22;5534;48.784;9.190;2023-06-14T12:55:05;25.70;60.60
10964;DHT22;5534;48.784;9.190;2023-06-14T12:57:34;25.60;60.80
10964;DHT22;5534;48.784;9.190;2023-06-14T13:00:04;25.50;60.70
10964;DHT22;5534;48.784;9.190;2023-06-14T13:02:30;25.30;60.80
10964;DHT22;5534;48.784;9.190;2023-06-14T13:04:56;25.30;60.60
10964;DHT22;5534;48.784;9.190;2023-06-14T13:07:29;25.10;60.60
10964;DHT22;5534;48.784;9.190;2023-06-14T13:09:55;25.20;60.40
10964;DHT22;5534;48.784;9.190;2023-06-14T13:12:21;25.30;60.20
10964;DHT22;5534;48.784;9.190;2023-06-14T13:14:47;25.40;60.20
10964;DHT22;5534;48.784;9.190;2023-06-14T13:17:13;25.50;60.80
10964;DHT22;5534;48.784;9.190;2023-06-14T13:19:39;25.50;60.40
10964;DHT22;5534;48.784;9.190;2023-06-14T13:22:04;25.70;60.90
10964;DHT22;5534;48.784;9.190;2023-06-14T13:24:30;25.80;60.00
10964;DHT22;5534;48.784;9.190;2023-06-14T13:26:56;25.80;60.10
10964;DHT22;5534;48.784;9.190;2023-06-14T13:29:23;25.90;60.10
10964;DHT22;5534;48.784;9.190;2023-06-14T13:31:49;25.90;60.70
10964;DHT22;5534;48.784;9.190;2023-06-14T13:34:15;25.90;61.30
10964;DHT22;5534;48.784;9.190;2023-06-14T13:36:41;25.90;61.90
10964;DHT22;5534;48.784;9.190;2023-06-14T13:39:07;25.90;61.50
10964;DHT22;5534;48.784;9.190;2023-06-14T13:41:33;26.10;61.10
10964;DHT22;5534;48.784;9.190;2023-06-14T13:44:01;26.10;61.10
10964;DHT22;5534;48.784;9.190;2023-06-14T13:46:29;26.10;61.20
10964;DHT22;5534;48.784;9.190;2023-06-14T13:48:55;26.00;61.20
10964;DHT22;5534;48.784;9.190;2023-06-14T13:51:21;26.00;61.30
10964;DHT22;5534;48.784;9.190;2023-06-14T13:53:48;26.00;61.00
10964;DHT22;5534;48.784;9.190;2023-06-14T13:56:15;25.90;60.90
10964;DHT22;5534;48.784;9.190;2023-06-14T13:58:41;26.00;60.70
10964;DHT22;5534;48.784;9.190;2023-06-14T14:01:07;25.90;60.80
10964;DHT22;5534;48.784;9.190;2023-06-14T14:03:33;26.00;60.80
10964;DHT22;5534;48.784;9.190;2023-06-14T14:05:58;26.10;60.90
10964;DHT22;5534;48.784;9.190;2023-06-14T14:08:24;26.20;60.50
10964;DHT22;5534;48.784;9.190;2023-06-14T14:10:50;26.30;60.00
10964;DHT22;5534;48.784;9.190;2023-06-14T14:13:15;26.10;60.00
10964;DHT22;5534;48.784;9.190;2023-06-14T14:15:41;26.10;60.50
10964;DHT22;5534;48.784;9.190;2023-06-14T14:18:07;26.10;61.10
10964;DHT22;5534;48.784;9.190;2023-06-14T14:20:33;26.10;61.30
10964;DHT22;5534;48.784;9.190;2023-06-14T14:22:59;26.10;61.40
10964;DHT22;5534;48.784;9.190;2023-06-14T14:25:25;26.20;61.40
10964;DHT22;5534;48.784;9.190;2023-06-14T14:27:51;26.30;61.40
10964;DHT22;5534;48.784;9.190;2023-06-14T14:30:16;26.30;61.80
10964;DHT22;5534;48.784;9.190;2023-06-14T14:32:44;26.30;62.20
10964;DHT22;5534;48.784;9.190;2023-06-14T14:35:10;26.30;62.60
10964;DHT22;5534;48.784;9.190;2023-06-14T14:37:39;26.30;61.80
10964;DHT22;5534;48.784;9.190;2023-06-14T14:40:05;26.10;61.90
10964;DHT22;5534;48.784;9.190;2023-06-14T14:42:31;25.90;62.20
10964;DHT22;5534;48.784;9.190;2023-06-14T14:44:57;25.70;62.10
10964;DHT22;5534;48.784;9.190;2023-06-14T14:47:23;25.60;62.50
10964;DHT22;5534;48.784;9.190;2023-06-14T14:49:48;25.70;62.60
10964;DHT22;5534;48.784;9.190;2023-06-14T14:52:14;25.80;62.20
10964;DHT22;5534;48.784;9.190;2023-06-14T14:54:40;25.80;61.80
10964;DHT22;5534;48.784;9.190;2023-06-14T14:57:06;25.50;62.40
10964;DHT22;5534;48.784;9.190;2023-06-14T14:59:32;25.60;62.40
10964;DHT22;5534;48.784;9.190;2023-06-14T15:01:58;25.80;62.70
10964;DHT22;5534;48.784;9.190;2023-06-14T15:04:23;25.90;61.80
10964;DHT22;5534;48.784;9.190;2023-06-14T15:06:49;26.10;61.40
10964;DHT22;5534;48.784;9.190;2023-06-14T15:09:15;26.00;61.90
10964;DHT22;5534;48.784;9.190;2023-06-14T15:11:41;26.10;61.40
10964;DHT22;5534;48.784;9.190;2023-06-14T15:14:08;26.00;62.40
10964;DHT22;5534;48.784;9.190;2023-06-14T15:16:34;25.90;62.60
10964;DHT22;5534;48.784;9.190;2023-06-14T15:19:00;26.00;62.50
10964;DHT22;5534;48.784;9.190;2023-06-14T15:21:26;26.00;62.30
10964;DHT22;5534;48.784;9.190;2023-06-14T15:23:52;25.90;62.50
10964;DHT22;5534;48.784;9.190;2023-06-14T15:26:19;25.90;63.00
10964;DHT22;5534;48.784;9.190;2023-06-14T15:28:48;25.80;63.10
10964;DHT22;5534;48.784;9.190;2023-06-14T15:31:16;25.90;63.10
10964;DHT22;5534;48.784;9.190;2023-06-14T15:33:42;25.90;62.30
10964;DHT22;5534;48.784;9.190;2023-06-14T15:36:09;25.80;63.20
10964;DHT22;5534;48.784;9.190;2023-06-14T15:38:35;25.90;64.10
10964;DHT22;5534;48.784;9.190;2023-06-14T15:41:03;26.00;63.70
10964;DHT22;5534;48.784;9.190;2023-06-14T15:43:29;26.00;62.50
10964;DHT22;5534;48.784;9.190;2023-06-14T15:45:55;25.90;62.70
10964;DHT22;5534;48.784;9.190;2023-06-14T15:48:21;25.90;62.70
10964;DHT22;5534;48.784;9.190;2023-06-14T15:50:49;25.80;62.90
10964;DHT22;5534;48.784;9.190;2023-06-14T15:53:14;25.80;62.70
10964;DHT22;5534;48.784;9.190;2023-06-14T15:55:41;25.70;62.60
10964;DHT22;5534;48.784;9.190;2023-06-14T15:58:06;25.50;62.90
10964;DHT22;5534;48.784;9.190;2023-06-14T16:00:33;25.50;62.40
10964;DHT22;5534;48.784;9.190;2023-06-14T16:02:59;25.50;62.50
10964;DHT22;5534;48.784;9.190;2023-06-14T16:05:24;25.60;62.00